createdAt,value
2018-12-16T00:00:01.233Z,1.10
2018-12-16T00:02:28.727Z,1.10
2018-12-16T00:04:56.167Z,1.10
2018-12-16T00:07:23.644Z,1.20
2018-12-16T00:09:51.143Z,1.10
2018-12-16T00:12:18.619Z,1.10
2018-12-16T00:14:46.083Z,1.20
2018-12-16T00:17:13.538Z,1.20
2018-12-16T00:19:41.016Z,1.20
2018-12-16T00:22:08.463Z,1.20
2018-12-16T00:24:35.969Z,1.20
2018-12-16T00:27:11.099Z,1.20
2018-12-16T00:29:38.737Z,1.20
2018-12-16T00:32:06.360Z,1.20
2018-12-16T00:34:33.815Z,1.20
2018-12-16T00:37:01.310Z,1.20
2018-12-16T00:39:28.778Z,1.20
2018-12-16T00:41:56.223Z,1.20
2018-12-16T00:44:23.703Z,1.20
2018-12-16T00:46:51.180Z,1.20
2018-12-16T00:49:18.638Z,1.20
2018-12-16T00:51:46.088Z,1.20
2018-12-16T00:54:13.598Z,1.20
2018-12-16T00:56:41.064Z,1.20
2018-12-16T00:59:08.540Z,1.20
2018-12-16T01:01:36.002Z,1.20
2018-12-16T01:04:03.465Z,1.20
2018-12-16T01:06:31.008Z,1.20
2018-12-16T01:08:58.471Z,1.20
2018-12-16T01:11:25.926Z,1.20
2018-12-16T01:13:53.402Z,1.20
2018-12-16T01:16:20.863Z,1.20
2018-12-16T01:18:48.313Z,1.20
2018-12-16T01:21:15.792Z,1.20
2018-12-16T01:23:43.248Z,1.30
2018-12-16T01:26:10.722Z,1.30
2018-12-16T01:28:38.176Z,1.40
2018-12-16T01:31:05.665Z,1.30
2018-12-16T01:33:33.196Z,1.30
2018-12-16T01:36:00.651Z,1.30
2018-12-16T01:38:28.102Z,1.30
2018-12-16T01:40:55.575Z,1.30
2018-12-16T01:43:23.063Z,1.40
2018-12-16T01:45:50.532Z,1.40
2018-12-16T01:48:17.979Z,1.40
2018-12-16T01:50:45.478Z,1.40
2018-12-16T01:53:12.947Z,1.40
2018-12-16T01:55:40.418Z,1.40
2018-12-16T01:58:07.951Z,1.40
2018-12-16T02:00:35.494Z,1.30
2018-12-16T02:03:02.995Z,1.30
2018-12-16T02:05:30.467Z,1.30
2018-12-16T02:07:57.943Z,1.40
2018-12-16T02:10:26.310Z,1.30
2018-12-16T02:12:53.814Z,1.30
2018-12-16T02:15:21.280Z,1.20
2018-12-16T02:17:48.741Z,1.10
2018-12-16T02:20:16.203Z,1.00
2018-12-16T02:22:43.694Z,0.90
2018-12-16T02:25:11.138Z,0.80
2018-12-16T02:27:38.606Z,0.70
2018-12-16T02:30:08.283Z,0.70
2018-12-16T02:32:35.913Z,0.60
2018-12-16T02:35:04.564Z,0.50
2018-12-16T02:37:32.047Z,0.50
2018-12-16T02:39:59.510Z,0.50
2018-12-16T02:42:26.956Z,0.50
2018-12-16T02:44:54.431Z,0.50
2018-12-16T02:47:21.872Z,0.50
2018-12-16T02:49:49.359Z,0.50
2018-12-16T02:52:16.821Z,0.50
2018-12-16T02:54:44.385Z,0.50
2018-12-16T02:57:11.861Z,0.50
2018-12-16T02:59:39.343Z,0.50
2018-12-16T03:02:06.791Z,0.50
2018-12-16T03:04:34.267Z,0.50
2018-12-16T03:07:01.716Z,0.50
2018-12-16T03:09:29.183Z,0.40
2018-12-16T03:11:56.665Z,0.40
2018-12-16T03:14:24.128Z,0.30
2018-12-16T03:16:51.582Z,0.30
2018-12-16T03:19:19.089Z,0.30
2018-12-16T03:21:46.522Z,0.30
2018-12-16T03:24:14.001Z,0.20
2018-12-16T03:26:41.486Z,0.20
2018-12-16T03:29:08.971Z,0.20
2018-12-16T03:31:36.419Z,0.20
2018-12-16T03:34:03.887Z,0.10
2018-12-16T03:36:31.363Z,0.10
2018-12-16T03:38:58.823Z,0.10
2018-12-16T03:41:26.411Z,0.10
2018-12-16T03:43:53.876Z,0.20
2018-12-16T03:46:21.350Z,0.20
2018-12-16T03:48:48.787Z,0.30
2018-12-16T03:51:16.287Z,0.30
2018-12-16T03:53:43.742Z,0.20
2018-12-16T03:56:11.220Z,0.20
2018-12-16T03:58:46.372Z,0.20
2018-12-16T04:01:13.839Z,0.20
2018-12-16T04:03:41.286Z,0.20
2018-12-16T04:06:08.759Z,0.10
2018-12-16T04:08:36.209Z,0.10
2018-12-16T04:11:03.697Z,0.00
2018-12-16T04:13:31.142Z,0.10
2018-12-16T04:15:58.612Z,0.00
2018-12-16T04:18:26.061Z,0.00
2018-12-16T04:20:53.527Z,0.00
2018-12-16T04:23:27.367Z,0.00
2018-12-16T04:25:50.447Z,0.00
2018-12-16T04:28:17.988Z,0.00
2018-12-16T04:30:45.542Z,0.00
2018-12-16T04:33:13.024Z,0.00
2018-12-16T04:35:40.496Z,-0.10
2018-12-16T04:38:07.974Z,-0.10
2018-12-16T04:40:35.450Z,-0.10
2018-12-16T04:43:02.941Z,-0.10
2018-12-16T04:45:30.399Z,-0.10
2018-12-16T04:47:57.879Z,-0.10
2018-12-16T04:50:25.337Z,0.00
2018-12-16T04:52:52.872Z,0.00
2018-12-16T04:55:20.350Z,0.00
2018-12-16T04:57:47.798Z,0.00
2018-12-16T05:00:15.284Z,0.00
2018-12-16T05:02:42.829Z,0.00
2018-12-16T05:05:10.290Z,-0.10
2018-12-16T05:07:37.746Z,0.00
2018-12-16T05:10:17.055Z,0.00
2018-12-16T05:12:44.519Z,0.00
2018-12-16T05:15:12.070Z,0.00
2018-12-16T05:17:39.515Z,0.00
2018-12-16T05:20:06.984Z,0.00
2018-12-16T05:22:34.426Z,0.00
2018-12-16T05:25:01.906Z,0.00
2018-12-16T05:27:29.344Z,0.00
2018-12-16T05:29:56.815Z,0.00
2018-12-16T05:32:24.265Z,0.10
2018-12-16T05:34:51.755Z,0.10
2018-12-16T05:37:19.210Z,0.10
2018-12-16T05:39:46.712Z,0.00
2018-12-16T05:42:14.154Z,0.10
2018-12-16T05:44:41.638Z,0.10
2018-12-16T05:47:09.090Z,0.10
2018-12-16T05:49:36.559Z,0.10
2018-12-16T05:52:04.047Z,0.10
2018-12-16T05:54:31.496Z,0.10
2018-12-16T05:56:58.974Z,0.10
2018-12-16T05:59:26.425Z,0.10
2018-12-16T06:01:53.890Z,0.10
2018-12-16T06:04:21.345Z,0.10
2018-12-16T06:06:48.819Z,0.00
2018-12-16T06:09:16.263Z,0.10
2018-12-16T06:11:43.738Z,0.10
2018-12-16T06:14:11.434Z,0.10
2018-12-16T06:16:38.886Z,0.10
2018-12-16T06:19:06.374Z,0.10
2018-12-16T06:21:33.854Z,0.10
2018-12-16T06:24:01.342Z,0.20
2018-12-16T06:26:28.811Z,0.20
2018-12-16T06:28:56.281Z,0.30
2018-12-16T06:31:23.731Z,0.30
2018-12-16T06:33:51.217Z,0.30
2018-12-16T06:36:18.773Z,0.30
2018-12-16T06:38:46.230Z,0.30
2018-12-16T06:41:13.687Z,0.40
2018-12-16T06:43:41.193Z,0.40
2018-12-16T06:46:08.662Z,0.40
2018-12-16T06:48:36.123Z,0.40
2018-12-16T06:51:03.570Z,0.40
2018-12-16T06:53:31.066Z,0.40
2018-12-16T06:55:58.606Z,0.40
2018-12-16T06:58:26.091Z,0.40
2018-12-16T07:00:53.563Z,0.40
2018-12-16T07:03:21.039Z,0.40
2018-12-16T07:05:48.497Z,0.40
2018-12-16T07:08:15.980Z,0.50
2018-12-16T07:10:43.500Z,0.50
2018-12-16T07:13:10.976Z,0.60
2018-12-16T07:15:38.459Z,0.60
2018-12-16T07:18:05.955Z,0.60
2018-12-16T07:20:33.482Z,0.50
2018-12-16T07:23:01.019Z,0.60
2018-12-16T07:25:28.509Z,0.60
2018-12-16T07:27:56.010Z,0.60
2018-12-16T07:30:23.490Z,0.60
2018-12-16T07:32:50.975Z,0.60
2018-12-16T07:35:18.578Z,0.60
2018-12-16T07:37:46.055Z,0.60
2018-12-16T07:40:13.691Z,0.60
2018-12-16T07:42:41.198Z,0.60
2018-12-16T07:45:08.853Z,0.70
2018-12-16T07:47:36.307Z,0.70
2018-12-16T07:50:05.301Z,0.70
2018-12-16T07:52:32.918Z,0.70
2018-12-16T07:55:00.487Z,0.70
2018-12-16T07:57:27.975Z,0.70
2018-12-16T07:59:55.478Z,0.80
2018-12-16T08:02:22.964Z,0.80
2018-12-16T08:04:50.408Z,0.80
2018-12-16T08:07:17.896Z,0.80
2018-12-16T08:09:45.362Z,0.80
2018-12-16T08:12:12.919Z,0.80
2018-12-16T08:14:40.374Z,0.90
2018-12-16T08:17:07.873Z,0.90
2018-12-16T08:19:35.330Z,0.90
2018-12-16T08:22:02.843Z,0.90
2018-12-16T08:24:30.306Z,0.90
2018-12-16T08:26:57.825Z,1.00
2018-12-16T08:29:25.313Z,1.00
2018-12-16T08:31:52.811Z,1.00
2018-12-16T08:34:20.274Z,1.00
2018-12-16T08:36:47.751Z,1.00
2018-12-16T08:39:15.271Z,1.00
2018-12-16T08:41:42.737Z,1.00
2018-12-16T08:44:10.247Z,1.10
2018-12-16T08:46:37.710Z,1.10
2018-12-16T08:49:05.203Z,1.00
2018-12-16T08:51:32.670Z,1.00
2018-12-16T08:54:00.156Z,1.10
2018-12-16T08:56:27.702Z,1.10
2018-12-16T08:58:55.189Z,1.10
2018-12-16T09:01:22.670Z,1.10
2018-12-16T09:03:50.526Z,1.00
2018-12-16T09:06:17.986Z,1.00
2018-12-16T09:08:45.875Z,1.00
2018-12-16T09:11:13.351Z,1.00
2018-12-16T09:13:40.931Z,1.00
2018-12-16T09:16:08.394Z,1.10
2018-12-16T09:18:35.862Z,1.10
2018-12-16T09:21:03.360Z,1.10
2018-12-16T09:23:30.831Z,1.00
2018-12-16T09:25:58.316Z,1.10
2018-12-16T09:28:25.812Z,1.10
2018-12-16T09:30:58.006Z,1.20
2018-12-16T09:33:22.755Z,1.20
2018-12-16T09:35:50.235Z,1.30
2018-12-16T09:38:17.729Z,1.30
2018-12-16T09:40:45.211Z,1.40
2018-12-16T09:43:12.665Z,1.40
2018-12-16T09:45:40.166Z,1.40
2018-12-16T09:48:07.634Z,1.50
2018-12-16T09:50:35.102Z,1.50
2018-12-16T09:53:02.572Z,1.50
2018-12-16T09:55:30.078Z,1.60
2018-12-16T09:57:57.602Z,1.70
2018-12-16T10:00:25.087Z,1.80
2018-12-16T10:02:52.558Z,1.80
2018-12-16T10:05:20.236Z,1.90
2018-12-16T10:07:47.706Z,2.10
2018-12-16T10:10:15.188Z,2.20
2018-12-16T10:12:42.679Z,2.40
2018-12-16T10:15:10.219Z,2.40
2018-12-16T10:17:37.706Z,2.50
2018-12-16T10:20:07.538Z,2.60
2018-12-16T10:22:35.511Z,2.70
2018-12-16T10:25:03.551Z,2.80
2018-12-16T10:27:31.176Z,2.90
2018-12-16T10:29:58.667Z,2.90
2018-12-16T10:32:26.157Z,3.00
2018-12-16T10:34:53.616Z,3.10
2018-12-16T10:37:22.082Z,3.00
2018-12-16T10:39:49.535Z,3.00
2018-12-16T10:42:16.990Z,2.70
2018-12-16T10:44:44.477Z,2.60
2018-12-16T10:47:11.937Z,2.50
2018-12-16T10:49:39.526Z,2.50
2018-12-16T10:52:06.975Z,2.50
2018-12-16T10:54:34.465Z,2.50
2018-12-16T10:57:01.934Z,2.60
2018-12-16T10:59:29.407Z,2.70
2018-12-16T11:01:56.883Z,2.80
2018-12-16T11:04:24.418Z,2.80
2018-12-16T11:06:51.907Z,2.90
2018-12-16T11:09:19.367Z,2.80
2018-12-16T11:11:46.828Z,2.90
2018-12-16T11:14:14.330Z,2.90
2018-12-16T11:16:41.824Z,3.00
2018-12-16T11:19:09.294Z,2.90
2018-12-16T11:21:36.759Z,2.90
2018-12-16T11:24:04.357Z,2.70
2018-12-16T11:26:31.826Z,2.70
2018-12-16T11:28:59.301Z,2.60
2018-12-16T11:31:26.782Z,2.60
2018-12-16T11:33:54.255Z,2.60
2018-12-16T11:36:21.725Z,2.60
2018-12-16T11:38:49.222Z,2.60
2018-12-16T11:41:16.700Z,2.60
2018-12-16T11:43:44.161Z,2.60
2018-12-16T11:46:11.656Z,2.60
2018-12-16T11:48:39.105Z,2.70
2018-12-16T11:51:06.591Z,2.70
2018-12-16T11:53:34.043Z,2.70
2018-12-16T11:56:01.554Z,2.70
2018-12-16T11:58:29.010Z,2.70
2018-12-16T12:00:56.504Z,2.70
2018-12-16T12:03:23.961Z,2.70
2018-12-16T12:05:51.654Z,2.70
2018-12-16T12:08:19.218Z,2.60
2018-12-16T12:10:46.916Z,2.60
2018-12-16T12:13:14.386Z,2.60
2018-12-16T12:15:41.858Z,2.60
2018-12-16T12:18:09.331Z,2.50
2018-12-16T12:20:36.803Z,2.50
2018-12-16T12:23:04.291Z,2.40
2018-12-16T12:25:31.743Z,2.50
2018-12-16T12:27:59.213Z,2.40
2018-12-16T12:30:26.688Z,2.50
2018-12-16T12:32:54.178Z,2.40
2018-12-16T12:35:21.635Z,2.40
2018-12-16T12:37:49.219Z,2.40
2018-12-16T12:40:16.662Z,2.40
2018-12-16T12:42:44.242Z,2.40
2018-12-16T12:45:11.722Z,2.40
2018-12-16T12:47:39.176Z,2.50
2018-12-16T12:50:07.017Z,2.50
2018-12-16T12:52:34.480Z,2.50
2018-12-16T12:55:01.981Z,2.50
2018-12-16T12:57:29.486Z,2.60
2018-12-16T12:59:56.982Z,2.60
2018-12-16T13:02:24.425Z,2.60
2018-12-16T13:04:51.899Z,2.70
2018-12-16T13:07:19.418Z,2.60
2018-12-16T13:09:46.882Z,2.60
2018-12-16T13:12:14.502Z,2.60
2018-12-16T13:14:41.975Z,2.70
2018-12-16T13:17:09.728Z,2.70
2018-12-16T13:19:37.208Z,2.70
2018-12-16T13:22:04.659Z,2.80
2018-12-16T13:24:32.147Z,2.80
2018-12-16T13:26:59.692Z,2.80
2018-12-16T13:29:27.192Z,2.80
2018-12-16T13:31:54.650Z,2.80
2018-12-16T13:34:22.127Z,2.70
2018-12-16T13:36:49.736Z,2.70
2018-12-16T13:39:17.206Z,2.80
2018-12-16T13:41:44.714Z,2.80
2018-12-16T13:44:12.177Z,2.70
2018-12-16T13:46:39.646Z,2.70
2018-12-16T13:49:08.781Z,2.70
2018-12-16T13:51:36.242Z,2.70
2018-12-16T13:54:04.577Z,2.80
2018-12-16T13:56:32.797Z,2.70
2018-12-16T13:59:00.247Z,2.80
2018-12-16T14:01:27.743Z,2.90
2018-12-16T14:03:58.462Z,2.80
2018-12-16T14:06:25.939Z,2.90
2018-12-16T14:08:53.498Z,3.00
2018-12-16T14:11:21.175Z,3.10
2018-12-16T14:13:48.636Z,3.10
2018-12-16T14:16:16.092Z,3.10
2018-12-16T14:18:43.567Z,3.10
2018-12-16T14:21:11.004Z,3.10
2018-12-16T14:23:38.545Z,3.00
2018-12-16T14:26:06.026Z,3.00
2018-12-16T14:28:33.503Z,3.00
2018-12-16T14:31:00.968Z,2.90
2018-12-16T14:33:28.449Z,3.00
2018-12-16T14:35:55.927Z,3.00
2018-12-16T14:38:23.676Z,3.00
2018-12-16T14:40:51.154Z,3.00
2018-12-16T14:43:18.606Z,3.00
2018-12-16T14:45:46.077Z,3.00
2018-12-16T14:48:13.574Z,3.00
2018-12-16T14:50:41.033Z,3.00
2018-12-16T14:53:08.511Z,3.00
2018-12-16T14:55:35.978Z,3.10
2018-12-16T14:58:03.472Z,3.00
2018-12-16T15:00:30.950Z,3.00
2018-12-16T15:02:58.408Z,3.00
2018-12-16T15:05:25.917Z,3.00
2018-12-16T15:07:53.399Z,3.10
2018-12-16T15:10:20.882Z,3.10
2018-12-16T15:12:48.394Z,3.00
2018-12-16T15:15:16.855Z,3.00
2018-12-16T15:17:44.375Z,2.90
2018-12-16T15:20:11.859Z,3.00
2018-12-16T15:22:39.445Z,3.00
2018-12-16T15:25:07.322Z,3.00
2018-12-16T15:27:34.780Z,2.90
2018-12-16T15:30:02.544Z,2.90
2018-12-16T15:32:30.016Z,3.00
2018-12-16T15:34:57.479Z,2.90
2018-12-16T15:37:25.077Z,2.90
2018-12-16T15:39:52.532Z,2.90
2018-12-16T15:42:20.020Z,2.90
2018-12-16T15:44:47.520Z,2.90
2018-12-16T15:47:15.075Z,3.00
2018-12-16T15:49:42.534Z,2.90
2018-12-16T15:52:09.989Z,2.90
2018-12-16T15:54:37.503Z,2.90
2018-12-16T15:57:07.187Z,3.00
2018-12-16T15:59:35.714Z,2.90
2018-12-16T16:02:03.826Z,3.00
2018-12-16T16:04:31.409Z,3.00
2018-12-16T16:06:58.920Z,2.90
2018-12-16T16:09:26.484Z,2.90
2018-12-16T16:11:54.484Z,3.00
2018-12-16T16:14:21.962Z,3.00
2018-12-16T16:16:50.651Z,3.00
2018-12-16T16:19:18.142Z,3.00
2018-12-16T16:21:49.394Z,3.00
2018-12-16T16:24:17.224Z,3.00
2018-12-16T16:26:46.260Z,3.00
2018-12-16T16:29:14.803Z,3.00
2018-12-16T16:31:44.196Z,3.00
2018-12-16T16:34:11.677Z,3.00
2018-12-16T16:36:39.202Z,3.00
2018-12-16T16:39:09.270Z,3.00
2018-12-16T16:41:36.777Z,3.00
2018-12-16T16:44:05.609Z,3.10
2018-12-16T16:46:33.144Z,3.10
2018-12-16T16:49:03.249Z,3.20
2018-12-16T16:51:31.558Z,3.10
2018-12-16T16:54:08.190Z,3.20
2018-12-16T16:56:36.700Z,3.20
2018-12-16T16:59:04.183Z,3.10
2018-12-16T17:01:31.680Z,3.10
2018-12-16T17:03:59.175Z,3.10
2018-12-16T17:06:26.645Z,3.10
2018-12-16T17:08:54.136Z,3.10
2018-12-16T17:11:22.202Z,3.20
2018-12-16T17:13:50.008Z,3.20
2018-12-16T17:16:17.474Z,3.20
2018-12-16T17:18:45.499Z,3.20
2018-12-16T17:21:12.971Z,3.30
2018-12-16T17:23:40.421Z,3.20
2018-12-16T17:26:07.936Z,3.30
2018-12-16T17:28:35.381Z,3.30
2018-12-16T17:31:02.993Z,3.20
2018-12-16T17:33:30.438Z,3.20
2018-12-16T17:35:57.991Z,3.10
2018-12-16T17:38:25.494Z,3.00
2018-12-16T17:40:53.056Z,3.00
2018-12-16T17:43:20.552Z,2.90
2018-12-16T17:45:48.040Z,2.80
2018-12-16T17:48:15.508Z,2.70
2018-12-16T17:50:43.084Z,2.60
2018-12-16T17:53:10.588Z,2.60
2018-12-16T17:55:38.042Z,2.50
2018-12-16T17:58:05.642Z,2.50
2018-12-16T18:00:33.150Z,2.40
2018-12-16T18:03:00.599Z,2.40
2018-12-16T18:05:28.094Z,2.40
2018-12-16T18:07:55.592Z,2.30
2018-12-16T18:10:23.094Z,2.30
2018-12-16T18:12:50.543Z,2.30
2018-12-16T18:15:18.009Z,2.30
2018-12-16T18:17:45.519Z,2.20
2018-12-16T18:20:13.089Z,2.20
2018-12-16T18:22:40.669Z,2.20
2018-12-16T18:25:08.139Z,2.20
2018-12-16T18:27:35.633Z,2.20
2018-12-16T18:30:05.748Z,2.20
2018-12-16T18:32:33.251Z,2.10
2018-12-16T18:35:00.763Z,2.10
2018-12-16T18:37:28.443Z,2.20
2018-12-16T18:39:55.907Z,2.20
2018-12-16T18:42:23.370Z,2.20
2018-12-16T18:44:50.847Z,2.10
2018-12-16T18:47:18.382Z,2.20
2018-12-16T18:49:45.878Z,2.20
2018-12-16T18:52:13.330Z,2.20
2018-12-16T18:54:40.807Z,2.20
2018-12-16T18:57:08.457Z,2.10
2018-12-16T18:59:35.969Z,2.10
2018-12-16T19:02:04.105Z,2.10
2018-12-16T19:04:31.739Z,2.10
2018-12-16T19:06:59.230Z,2.20
2018-12-16T19:09:26.759Z,2.20
2018-12-16T19:11:54.323Z,2.20
2018-12-16T19:14:22.050Z,2.10
2018-12-16T19:16:49.647Z,2.10
2018-12-16T19:19:17.602Z,2.10
2018-12-16T19:21:45.061Z,2.10
2018-12-16T19:24:12.624Z,2.00
2018-12-16T19:26:40.144Z,2.10
2018-12-16T19:29:07.662Z,2.10
2018-12-16T19:31:35.928Z,2.20
2018-12-16T19:34:03.538Z,2.30
2018-12-16T19:36:31.012Z,2.30
2018-12-16T19:38:58.492Z,2.40
2018-12-16T19:41:25.985Z,2.40
2018-12-16T19:43:53.445Z,2.40
2018-12-16T19:46:21.190Z,2.40
2018-12-16T19:48:48.678Z,2.50
2018-12-16T19:51:16.166Z,2.60
2018-12-16T19:53:43.691Z,2.60
2018-12-16T19:56:11.178Z,2.60
2018-12-16T19:58:38.941Z,2.60
2018-12-16T20:01:06.614Z,2.70
2018-12-16T20:03:34.088Z,2.70
2018-12-16T20:06:07.398Z,2.70
2018-12-16T20:08:34.898Z,2.70
2018-12-16T20:11:02.358Z,2.70
2018-12-16T20:13:29.874Z,2.70
2018-12-16T20:16:01.511Z,2.70
2018-12-16T20:18:27.001Z,2.70
2018-12-16T20:20:54.472Z,2.70
2018-12-16T20:23:21.961Z,2.60
2018-12-16T20:25:49.515Z,2.50
2018-12-16T20:28:16.996Z,2.50
2018-12-16T20:30:44.466Z,2.40
2018-12-16T20:33:11.927Z,2.40
2018-12-16T20:35:39.403Z,2.30
2018-12-16T20:38:07.058Z,2.30
2018-12-16T20:40:34.635Z,2.30
2018-12-16T20:43:02.187Z,2.20
2018-12-16T20:45:29.662Z,2.20
2018-12-16T20:47:57.145Z,2.20
2018-12-16T20:50:24.621Z,2.20
2018-12-16T20:52:52.077Z,2.20
2018-12-16T20:55:19.595Z,2.10
2018-12-16T20:57:47.062Z,2.10
2018-12-16T21:00:14.553Z,2.10
2018-12-16T21:02:42.006Z,2.10
2018-12-16T21:05:09.677Z,2.10
2018-12-16T21:07:37.136Z,2.10
2018-12-16T21:10:04.803Z,2.10
2018-12-16T21:12:37.907Z,2.10
2018-12-16T21:15:11.122Z,2.10
2018-12-16T21:17:44.378Z,2.10
2018-12-16T21:20:11.875Z,2.10
2018-12-16T21:22:39.342Z,2.10
2018-12-16T21:25:06.974Z,2.10
2018-12-16T21:27:34.818Z,2.10
2018-12-16T21:30:02.463Z,2.10
2018-12-16T21:32:29.934Z,2.10
2018-12-16T21:34:57.413Z,2.10
2018-12-16T21:37:24.907Z,2.10
2018-12-16T21:39:52.368Z,2.10
2018-12-16T21:42:19.866Z,2.10
2018-12-16T21:44:47.322Z,2.20
2018-12-16T21:47:14.811Z,2.20
2018-12-16T21:49:42.258Z,2.20
2018-12-16T21:52:09.740Z,2.20
2018-12-16T21:54:37.183Z,2.30
2018-12-16T21:57:04.672Z,2.30
2018-12-16T21:59:32.521Z,2.30
2018-12-16T22:02:00.002Z,2.30
2018-12-16T22:04:27.438Z,2.30
2018-12-16T22:06:54.948Z,2.20
2018-12-16T22:09:22.400Z,2.20
2018-12-16T22:11:49.890Z,2.20
2018-12-16T22:14:17.342Z,2.20
2018-12-16T22:16:44.844Z,2.20
2018-12-16T22:19:12.309Z,2.20
2018-12-16T22:21:39.782Z,2.20
2018-12-16T22:24:07.255Z,2.20
2018-12-16T22:26:34.723Z,2.10
2018-12-16T22:29:02.749Z,2.10
2018-12-16T22:31:30.227Z,2.10
2018-12-16T22:33:57.724Z,2.10
2018-12-16T22:36:25.267Z,2.00
2018-12-16T22:38:52.757Z,2.00
2018-12-16T22:41:20.222Z,2.00
2018-12-16T22:43:47.982Z,2.10
2018-12-16T22:46:15.530Z,2.20
2018-12-16T22:48:43.028Z,2.20
2018-12-16T22:51:10.792Z,2.10
2018-12-16T22:53:38.245Z,2.20
2018-12-16T22:56:05.705Z,2.10
2018-12-16T22:58:33.174Z,2.10
2018-12-16T23:01:06.248Z,2.10
2018-12-16T23:03:33.809Z,2.10
2018-12-16T23:06:02.278Z,2.10
2018-12-16T23:08:29.803Z,2.10
2018-12-16T23:10:57.296Z,2.10
2018-12-16T23:13:24.747Z,2.10
2018-12-16T23:15:52.223Z,2.00
2018-12-16T23:18:19.698Z,2.00
2018-12-16T23:20:47.155Z,2.00
2018-12-16T23:23:15.214Z,2.00
2018-12-16T23:25:42.708Z,2.00
2018-12-16T23:28:10.166Z,1.90
2018-12-16T23:30:37.659Z,1.90
2018-12-16T23:33:05.123Z,1.90
2018-12-16T23:35:32.597Z,1.90
2018-12-16T23:38:00.067Z,1.90
2018-12-16T23:40:27.530Z,2.00
2018-12-16T23:42:54.999Z,2.00
2018-12-16T23:45:22.486Z,2.00
2018-12-16T23:47:49.935Z,1.90
2018-12-16T23:50:17.426Z,1.90
2018-12-16T23:52:44.900Z,1.90
2018-12-16T23:55:12.432Z,1.90
2018-12-16T23:57:39.909Z,1.90
